メインページ
METAR-TAF:

METAR-TAF

空港 :

フォートマクマレー空港

フォートマクマレー, アルバータ州, カナダ

緯度: 56-39N, 経度: 111-13W, 海抜: 369m

現時点の気象観測

当レポートは13分前の11:00(UTC)に作成
南/南西の風 4kt
気温 13°C
湿度 77%
気圧 1010 hPa
視程: 14.5km
晴天

METAR: CYMM 051100Z AUTO 21004KT 9SM CLR 13/09 A2982 RMK SLP104 DENSITY ALT 1300FT

時間: 05:13 (11:13 UTC)

予報

当レポートは4時間35分前の06:38(UTC)に作成
予報は05日の 07時(UTC)から 05日の 19時(UTC)まで有効
南西の風 8kt
視程: 10km
晴天

TAF: CYMM 050638Z 0507/0519 23008KT P6SM SKC RMK FCST BASED ON AUTO OBS. NXT FCST BY 051300Z

4,000以上の空港の気象観測と天気予報(METAR報とTAF報)

利用可能な観測所は地図上に黄色い丸と赤い丸で示す。

丸の上にカーソルを重ねると観測所名を参照できる。

次にクリックすると気象観測と天気予報を参照できる。

マップの切り替え:黒色「×」印の緑ボタンをクリックして拡大、「-」印の緑ボタンをクリックして縮小、緑色の三角印をクリックして隣りの地図に切り替え


METAR-TAF: